createdAt,value
2019-04-03T00:00:37.336Z,99152.00
2019-04-03T00:03:06.104Z,99145.80
2019-04-03T00:05:35.457Z,99156.34
2019-04-03T00:08:06.558Z,99144.53
2019-04-03T00:10:38.086Z,99145.70
2019-04-03T00:13:06.696Z,99148.14
2019-04-03T00:15:35.416Z,99141.28
2019-04-03T00:18:04.297Z,99143.34
2019-04-03T00:20:33.094Z,99144.34
2019-04-03T00:23:01.934Z,99135.05
2019-04-03T00:25:30.695Z,99140.63
2019-04-03T00:27:59.479Z,99136.16
2019-04-03T00:30:28.344Z,99120.86
2019-04-03T00:32:57.214Z,99131.63
2019-04-03T00:35:26.802Z,99127.05
2019-04-03T00:37:55.807Z,99131.35
2019-04-03T00:40:24.927Z,99126.09
2019-04-03T00:42:54.641Z,99123.31
2019-04-03T00:45:24.478Z,99124.13
2019-04-03T00:47:55.768Z,99127.53
2019-04-03T00:50:26.128Z,99119.16
2019-04-03T00:52:57.433Z,99118.81
2019-04-03T00:55:26.952Z,99116.19
2019-04-03T00:57:56.498Z,99114.36
2019-04-03T01:00:26.400Z,99111.45
2019-04-03T01:02:58.106Z,99103.81
2019-04-03T01:05:28.084Z,99107.77
2019-04-03T01:07:59.248Z,99110.14
2019-04-03T01:10:29.317Z,99111.91
2019-04-03T01:12:58.119Z,99103.86
2019-04-03T01:15:26.975Z,99106.61
2019-04-03T01:17:55.776Z,99101.92
2019-04-03T01:20:24.575Z,99101.92
2019-04-03T01:22:53.415Z,99099.20
2019-04-03T01:25:22.175Z,99097.27
2019-04-03T01:27:50.974Z,99090.64
2019-04-03T01:30:19.815Z,99093.05
2019-04-03T01:32:48.795Z,99089.52
2019-04-03T01:35:17.973Z,99090.22
2019-04-03T01:37:47.854Z,99088.47
2019-04-03T01:40:20.111Z,99088.70
2019-04-03T01:42:48.015Z,99091.56
2019-04-03T01:45:16.738Z,99092.38
2019-04-03T01:47:45.543Z,99089.47
2019-04-03T01:50:14.533Z,99086.67
2019-04-03T01:52:43.376Z,99086.02
2019-04-03T01:55:12.256Z,99086.17
2019-04-03T01:57:41.063Z,99090.64
2019-04-03T02:00:10.339Z,99084.91
2019-04-03T02:02:39.324Z,99083.00
2019-04-03T02:05:12.431Z,99086.09
2019-04-03T02:07:40.034Z,99083.97
2019-04-03T02:10:18.202Z,99081.44
2019-04-03T02:12:47.282Z,99080.77
2019-04-03T02:15:16.023Z,99075.40
2019-04-03T02:17:44.764Z,99074.98
2019-04-03T02:20:14.014Z,99071.03
2019-04-03T02:22:42.744Z,99074.56
2019-04-03T02:25:11.529Z,99070.08
2019-04-03T02:27:40.263Z,99064.89
2019-04-03T02:30:12.286Z,99068.95
2019-04-03T02:32:39.994Z,99062.83
2019-04-03T02:35:09.027Z,99053.55
2019-04-03T02:37:37.790Z,99058.88
2019-04-03T02:40:08.035Z,99057.96
2019-04-03T02:42:40.253Z,99057.57
2019-04-03T02:45:08.504Z,99050.99
2019-04-03T02:47:37.300Z,99048.44
2019-04-03T02:50:06.818Z,99050.53
2019-04-03T02:52:36.319Z,99046.48
2019-04-03T02:55:07.596Z,99046.80
2019-04-03T02:57:36.721Z,99043.84
2019-04-03T03:00:07.450Z,99045.34
2019-04-03T03:02:36.283Z,99036.64
2019-04-03T03:05:06.656Z,99038.23
2019-04-03T03:07:36.354Z,99037.02
2019-04-03T03:10:07.452Z,99036.91
2019-04-03T03:12:37.791Z,99027.83
2019-04-03T03:15:16.612Z,99026.68
2019-04-03T03:17:45.756Z,99020.63
2019-04-03T03:20:16.511Z,99020.23
2019-04-03T03:22:49.606Z,99025.31
2019-04-03T03:25:16.091Z,99025.63
2019-04-03T03:27:45.366Z,99024.67
2019-04-03T03:30:33.053Z,99024.95
2019-04-03T03:32:45.194Z,99025.01
2019-04-03T03:35:20.160Z,99024.78
2019-04-03T03:37:46.784Z,99016.73
2019-04-03T03:40:16.819Z,99019.77
2019-04-03T03:42:47.011Z,99019.02
2019-04-03T03:45:19.409Z,99019.88
2019-04-03T03:47:48.911Z,99020.37
2019-04-03T03:50:23.874Z,99022.38
2019-04-03T03:52:51.616Z,99014.87
2019-04-03T03:55:24.324Z,99022.19
2019-04-03T03:57:52.380Z,99021.80
2019-04-03T04:00:23.251Z,99013.68
2019-04-03T04:02:51.921Z,99010.59
2019-04-03T04:05:22.896Z,99014.97
2019-04-03T04:07:51.298Z,99013.36
2019-04-03T04:10:23.919Z,99016.54
2019-04-03T04:12:51.004Z,99007.65
2019-04-03T04:15:20.269Z,99004.29
2019-04-03T04:17:51.108Z,99005.77
2019-04-03T04:20:19.828Z,99002.38
2019-04-03T04:22:51.252Z,99000.06
2019-04-03T04:25:19.585Z,98992.60
2019-04-03T04:27:48.855Z,99004.29
2019-04-03T04:30:19.863Z,98995.09
2019-04-03T04:32:48.702Z,98992.60
2019-04-03T04:35:19.099Z,98994.52
2019-04-03T04:37:48.001Z,98988.42
2019-04-03T04:40:16.714Z,98989.45
2019-04-03T04:42:45.673Z,98987.64
2019-04-03T04:45:14.510Z,98990.95
2019-04-03T04:47:45.793Z,98985.78
2019-04-03T04:50:16.650Z,98985.61
2019-04-03T04:52:45.596Z,98987.67
2019-04-03T04:55:14.349Z,98979.08
2019-04-03T04:57:43.228Z,98970.97
2019-04-03T05:00:12.114Z,98967.98
2019-04-03T05:02:40.855Z,98972.67
2019-04-03T05:05:09.751Z,98969.08
2019-04-03T05:07:38.494Z,98967.30
2019-04-03T05:10:07.790Z,98968.06
2019-04-03T05:12:36.579Z,98964.20
2019-04-03T05:15:06.634Z,98969.04
2019-04-03T05:17:35.559Z,98961.16
2019-04-03T05:20:05.398Z,98962.55
2019-04-03T05:22:34.335Z,98963.33
2019-04-03T05:25:03.098Z,98967.38
2019-04-03T05:27:34.618Z,98962.69
2019-04-03T05:30:05.287Z,98966.91
2019-04-03T05:32:33.112Z,98968.25
2019-04-03T05:35:01.818Z,98967.33
2019-04-03T05:37:30.689Z,98967.17
2019-04-03T05:39:59.434Z,98963.69
2019-04-03T05:42:29.219Z,98954.40
2019-04-03T05:44:58.298Z,98958.56
2019-04-03T05:47:27.156Z,98953.50
2019-04-03T05:49:56.476Z,98951.68
2019-04-03T05:52:25.412Z,98940.79
2019-04-03T05:54:54.380Z,98945.66
2019-04-03T05:57:23.515Z,98938.62
2019-04-03T05:59:59.717Z,98942.30
2019-04-03T06:02:22.981Z,98945.89
2019-04-03T06:04:51.841Z,98936.91
2019-04-03T06:07:20.934Z,98944.46
2019-04-03T06:09:49.958Z,98937.59
2019-04-03T06:12:19.352Z,98943.77
2019-04-03T06:14:50.513Z,98939.80
2019-04-03T06:17:18.755Z,98941.96
2019-04-03T06:19:47.719Z,98945.48
2019-04-03T06:22:17.756Z,98939.33
2019-04-03T06:24:46.941Z,98938.86
2019-04-03T06:27:15.714Z,98936.20
2019-04-03T06:29:44.566Z,98933.21
2019-04-03T06:32:13.350Z,98927.52
2019-04-03T06:34:43.235Z,98927.53
2019-04-03T06:37:12.563Z,98926.11
2019-04-03T06:39:41.303Z,98929.47
2019-04-03T06:42:13.012Z,98921.73
2019-04-03T06:44:40.647Z,98926.19
2019-04-03T06:47:09.641Z,98919.31
2019-04-03T06:49:40.606Z,98918.08
2019-04-03T06:52:08.948Z,98923.16
2019-04-03T06:54:37.683Z,98925.47
2019-04-03T06:57:06.554Z,98922.99
2019-04-03T06:59:35.320Z,98924.16
2019-04-03T07:02:04.196Z,98917.09
2019-04-03T07:04:33.021Z,98920.11
2019-04-03T07:07:01.798Z,98921.64
2019-04-03T07:09:35.876Z,98920.48
2019-04-03T07:12:01.063Z,98920.14
2019-04-03T07:14:30.017Z,98911.53
2019-04-03T07:17:01.406Z,98904.00
2019-04-03T07:19:29.424Z,98907.07
2019-04-03T07:21:58.226Z,98907.66
2019-04-03T07:24:26.990Z,98898.02
2019-04-03T07:26:56.067Z,98893.83
2019-04-03T07:29:26.065Z,98900.44
2019-04-03T07:31:55.699Z,98895.50
2019-04-03T07:34:24.614Z,98897.97
2019-04-03T07:36:53.359Z,98903.44
2019-04-03T07:39:22.602Z,98905.03
2019-04-03T07:41:53.331Z,98896.53
2019-04-03T07:44:22.125Z,98899.41
2019-04-03T07:46:51.210Z,98887.59
2019-04-03T07:49:20.275Z,98894.28
2019-04-03T07:51:49.076Z,98879.83
2019-04-03T07:54:17.819Z,98880.91
2019-04-03T07:56:46.559Z,98868.55
2019-04-03T07:59:15.318Z,98868.41
2019-04-03T08:01:44.094Z,98873.05
2019-04-03T08:04:15.394Z,98879.17
2019-04-03T08:06:43.406Z,98869.50
2019-04-03T08:09:12.260Z,98873.84
2019-04-03T08:11:41.063Z,98875.03
2019-04-03T08:14:09.988Z,98879.84
2019-04-03T08:16:41.695Z,98879.80
2019-04-03T08:19:09.401Z,98875.23
2019-04-03T08:21:38.274Z,98875.42
2019-04-03T08:24:08.146Z,98878.66
2019-04-03T08:26:37.539Z,98868.85
2019-04-03T08:29:06.331Z,98860.86
2019-04-03T08:31:35.509Z,98871.16
2019-04-03T08:34:14.694Z,98864.35
2019-04-03T08:36:35.260Z,98864.14
2019-04-03T08:39:05.816Z,98871.11
2019-04-03T08:41:36.916Z,98864.52
2019-04-03T08:44:08.247Z,98858.66
2019-04-03T08:46:36.414Z,98859.22
2019-04-03T08:49:05.168Z,98869.95
2019-04-03T08:51:34.849Z,98873.33
2019-04-03T08:54:04.246Z,98859.86
2019-04-03T08:56:33.068Z,98871.23
2019-04-03T08:59:01.960Z,98858.64
2019-04-03T09:01:30.699Z,98862.55
2019-04-03T09:03:59.453Z,98863.17
2019-04-03T09:06:28.245Z,98869.80
2019-04-03T09:08:57.845Z,98847.20
2019-04-03T09:11:27.802Z,98869.65
2019-04-03T09:13:56.809Z,98853.52
2019-04-03T09:16:25.717Z,98842.59
2019-04-03T09:18:54.617Z,98879.56
2019-04-03T09:21:23.494Z,98846.59
2019-04-03T09:23:52.513Z,98828.77
2019-04-03T09:26:21.266Z,98841.23
2019-04-03T09:28:51.509Z,98844.32
2019-04-03T09:31:20.812Z,98830.81
2019-04-03T09:33:49.773Z,98832.04
2019-04-03T09:36:18.514Z,98827.37
2019-04-03T09:38:47.256Z,98826.73
2019-04-03T09:41:17.114Z,98818.54
2019-04-03T09:43:46.695Z,98802.20
2019-04-03T09:46:15.607Z,98809.16
2019-04-03T09:48:44.611Z,98826.21
2019-04-03T09:51:13.373Z,98812.04
2019-04-03T09:53:42.218Z,98799.25
2019-04-03T09:56:11.005Z,98802.83
2019-04-03T09:58:39.864Z,98795.73
2019-04-03T10:01:08.745Z,98792.67
2019-04-03T10:03:37.500Z,98788.27
2019-04-03T10:06:08.957Z,98772.84
2019-04-03T10:08:38.094Z,98790.33
2019-04-03T10:11:08.325Z,98806.19
2019-04-03T10:13:37.352Z,98782.83
2019-04-03T10:16:06.198Z,98783.64
2019-04-03T10:18:35.089Z,98791.19
2019-04-03T10:21:04.064Z,98792.08
2019-04-03T10:23:33.218Z,98783.48
2019-04-03T10:26:02.330Z,98781.31
2019-04-03T10:28:31.062Z,98776.11
2019-04-03T10:31:00.012Z,98778.42
2019-04-03T10:33:29.187Z,98763.53
2019-04-03T10:35:59.448Z,98764.59
2019-04-03T10:38:28.486Z,98773.42
2019-04-03T10:40:57.249Z,98759.57
2019-04-03T10:43:26.024Z,98749.57
2019-04-03T10:45:54.784Z,98743.28
2019-04-03T10:48:23.524Z,98751.30
2019-04-03T10:50:52.326Z,98747.36
2019-04-03T10:53:21.213Z,98743.11
2019-04-03T10:55:50.155Z,98751.60
2019-04-03T10:58:18.921Z,98745.64
2019-04-03T11:00:48.511Z,98740.98
2019-04-03T11:03:17.459Z,98733.94
2019-04-03T11:05:46.212Z,98756.30
2019-04-03T11:08:14.996Z,98740.56
2019-04-03T11:10:43.734Z,98728.25
2019-04-03T11:13:12.559Z,98725.31
2019-04-03T11:15:44.104Z,98730.39
2019-04-03T11:18:11.783Z,98721.78
2019-04-03T11:20:41.046Z,98724.05
2019-04-03T11:23:10.293Z,98719.09
2019-04-03T11:25:41.897Z,98717.12
2019-04-03T11:28:10.395Z,98706.81
2019-04-03T11:30:39.813Z,98706.08
2019-04-03T11:33:09.202Z,98696.39
2019-04-03T11:35:38.141Z,98706.08
2019-04-03T11:38:14.202Z,98703.88
2019-04-03T11:40:37.378Z,98707.39
2019-04-03T11:43:06.135Z,98694.88
2019-04-03T11:45:34.955Z,98691.83
2019-04-03T11:48:03.738Z,98683.81
2019-04-03T11:50:32.535Z,98683.75
2019-04-03T11:53:02.107Z,98688.67
2019-04-03T11:55:32.105Z,98681.24
2019-04-03T11:58:01.372Z,98685.43
2019-04-03T12:00:32.049Z,98689.60
2019-04-03T12:03:00.834Z,98677.04
2019-04-03T12:05:29.648Z,98683.62
2019-04-03T12:07:58.460Z,98681.27
2019-04-03T12:10:27.209Z,98684.89
2019-04-03T12:12:56.059Z,98684.98
2019-04-03T12:15:24.846Z,98690.50
2019-04-03T12:17:53.585Z,98677.74
2019-04-03T12:20:22.324Z,98668.12
2019-04-03T12:22:51.991Z,98665.20
2019-04-03T12:25:21.620Z,98661.86
2019-04-03T12:27:50.398Z,98664.86
2019-04-03T12:30:20.044Z,98665.52
2019-04-03T12:32:50.048Z,98668.30
2019-04-03T12:35:19.054Z,98666.95
2019-04-03T12:37:50.171Z,98656.44
2019-04-03T12:40:18.472Z,98646.80
2019-04-03T12:42:47.275Z,98655.73
2019-04-03T12:45:18.228Z,98652.33
2019-04-03T12:47:46.759Z,98653.43
2019-04-03T12:50:16.099Z,98648.09
2019-04-03T12:52:45.450Z,98654.41
2019-04-03T12:55:15.550Z,98645.26
2019-04-03T12:57:44.355Z,98650.77
2019-04-03T13:00:15.178Z,98653.89
2019-04-03T13:02:43.929Z,98640.94
2019-04-03T13:05:13.433Z,98643.17
2019-04-03T13:07:42.559Z,98634.91
2019-04-03T13:10:13.203Z,98632.74
2019-04-03T13:12:42.429Z,98628.37
2019-04-03T13:15:11.797Z,98620.13
2019-04-03T13:17:43.370Z,98628.80
2019-04-03T13:20:12.100Z,98619.65
2019-04-03T13:22:42.548Z,98626.72
2019-04-03T13:25:11.892Z,98625.00
2019-04-03T13:27:40.940Z,98642.42
2019-04-03T13:30:12.805Z,98627.13
2019-04-03T13:32:43.062Z,98641.54
2019-04-03T13:35:15.025Z,98629.80
2019-04-03T13:37:43.035Z,98625.14
2019-04-03T13:40:12.362Z,98614.39
2019-04-03T13:42:41.150Z,98623.71
2019-04-03T13:45:10.796Z,98617.07
2019-04-03T13:47:41.749Z,98619.95
2019-04-03T13:50:11.120Z,98618.76
2019-04-03T13:52:43.168Z,98615.77
2019-04-03T13:55:10.507Z,98608.94
2019-04-03T13:57:39.500Z,98620.28
2019-04-03T14:00:18.720Z,98602.67
2019-04-03T14:02:40.168Z,98615.97
2019-04-03T14:05:09.765Z,98604.34
2019-04-03T14:07:41.647Z,98587.97
2019-04-03T14:10:10.038Z,98598.64
2019-04-03T14:12:43.194Z,98595.38
2019-04-03T14:15:09.822Z,98601.55
2019-04-03T14:17:38.653Z,98589.82
2019-04-03T14:20:09.119Z,98595.98
2019-04-03T14:22:38.372Z,98590.97
2019-04-03T14:25:18.914Z,98595.27
2019-04-03T14:27:38.943Z,98576.25
2019-04-03T14:30:11.075Z,98577.16
2019-04-03T14:32:40.141Z,98589.00
2019-04-03T14:35:38.962Z,98591.48
2019-04-03T14:37:39.886Z,98591.55
2019-04-03T14:40:12.253Z,98572.62
2019-04-03T14:42:39.750Z,98590.53
2019-04-03T14:45:13.405Z,98584.37
2019-04-03T14:47:40.813Z,98570.17
2019-04-03T14:50:10.309Z,98564.14
2019-04-03T14:52:39.784Z,98569.30
2019-04-03T14:55:18.198Z,98562.18
2019-04-03T14:57:40.295Z,98574.61
2019-04-03T15:00:24.857Z,98568.63
2019-04-03T15:02:41.502Z,98562.60
2019-04-03T15:05:10.880Z,98567.47
2019-04-03T15:07:40.380Z,98564.45
2019-04-03T15:10:10.033Z,98566.16
2019-04-03T15:12:40.109Z,98576.65
2019-04-03T15:15:10.538Z,98570.88
2019-04-03T15:17:39.278Z,98576.39
2019-04-03T15:20:09.717Z,98573.02
2019-04-03T15:22:38.639Z,98563.28
2019-04-03T15:25:08.746Z,98558.13
2019-04-03T15:27:38.216Z,98559.92
2019-04-03T15:30:10.995Z,98562.60
2019-04-03T15:32:40.183Z,98568.80
2019-04-03T15:35:09.405Z,98556.45
2019-04-03T15:37:41.943Z,98557.92
2019-04-03T15:40:10.433Z,98550.27
2019-04-03T15:42:41.231Z,98562.05
2019-04-03T15:45:10.669Z,98541.91
2019-04-03T15:47:44.963Z,98551.27
2019-04-03T15:50:15.065Z,98546.25
2019-04-03T15:52:43.981Z,98545.08
2019-04-03T15:55:14.087Z,98540.72
2019-04-03T15:57:43.312Z,98539.66
2019-04-03T16:00:14.646Z,98535.08
2019-04-03T16:02:46.130Z,98532.96
2019-04-03T16:05:14.740Z,98531.44
2019-04-03T16:07:43.904Z,98536.23
2019-04-03T16:10:14.138Z,98529.55
2019-04-03T16:12:43.979Z,98527.64
2019-04-03T16:15:13.825Z,98535.52
2019-04-03T16:17:43.110Z,98522.41
2019-04-03T16:20:14.254Z,98527.23
2019-04-03T16:22:42.870Z,98520.05
2019-04-03T16:25:12.347Z,98522.22
2019-04-03T16:27:41.200Z,98529.91
2019-04-03T16:30:14.188Z,98526.02
2019-04-03T16:32:41.531Z,98522.72
2019-04-03T16:35:14.217Z,98525.75
2019-04-03T16:37:41.739Z,98532.11
2019-04-03T16:40:11.308Z,98537.59
2019-04-03T16:42:40.150Z,98540.48
2019-04-03T16:45:12.503Z,98528.86
2019-04-03T16:47:44.099Z,98538.64
2019-04-03T16:50:13.834Z,98532.26
2019-04-03T16:52:42.588Z,98540.61
2019-04-03T16:55:11.884Z,98534.48
2019-04-03T16:57:40.845Z,98535.03
2019-04-03T17:00:10.514Z,98532.78
2019-04-03T17:02:39.339Z,98534.53
2019-04-03T17:05:11.184Z,98534.22
2019-04-03T17:07:40.678Z,98538.05
2019-04-03T17:10:10.941Z,98538.58
2019-04-03T17:12:40.334Z,98534.75
2019-04-03T17:15:10.084Z,98536.50
2019-04-03T17:17:39.162Z,98539.23
2019-04-03T17:20:09.501Z,98541.56
2019-04-03T17:22:40.224Z,98544.33
2019-04-03T17:25:09.244Z,98537.67
2019-04-03T17:27:38.088Z,98549.39
2019-04-03T17:30:11.221Z,98553.66
2019-04-03T17:32:40.117Z,98551.78
2019-04-03T17:35:09.149Z,98555.52
2019-04-03T17:37:38.462Z,98560.01
2019-04-03T17:40:10.156Z,98554.10
2019-04-03T17:42:40.053Z,98554.61
2019-04-03T17:45:09.844Z,98553.42
2019-04-03T17:47:38.614Z,98554.20
2019-04-03T17:50:08.357Z,98558.73
2019-04-03T17:52:37.227Z,98556.81
2019-04-03T17:55:11.140Z,98562.35
2019-04-03T17:57:40.523Z,98551.57
2019-04-03T18:00:20.633Z,98565.16
2019-04-03T18:02:50.873Z,98568.20
2019-04-03T18:05:19.759Z,98570.16
2019-04-03T18:07:48.654Z,98569.55
2019-04-03T18:10:17.760Z,98563.62
2019-04-03T18:12:48.051Z,98573.44
2019-04-03T18:15:18.060Z,98576.36
2019-04-03T18:17:48.544Z,98576.83
2019-04-03T18:20:17.759Z,98577.17
2019-04-03T18:22:50.408Z,98587.14
2019-04-03T18:25:20.199Z,98592.22
2019-04-03T18:27:49.133Z,98595.74
2019-04-03T18:30:20.374Z,98596.20
2019-04-03T18:32:49.222Z,98604.07
2019-04-03T18:35:18.830Z,98603.73
2019-04-03T18:37:47.617Z,98606.02
2019-04-03T18:40:16.818Z,98601.80
2019-04-03T18:42:45.629Z,98611.13
2019-04-03T18:45:24.667Z,98607.48
2019-04-03T18:47:46.485Z,98606.02
2019-04-03T18:50:15.679Z,98617.41
2019-04-03T18:52:44.480Z,98613.41
2019-04-03T18:55:14.604Z,98611.33
2019-04-03T18:57:43.665Z,98606.27
2019-04-03T19:00:12.770Z,98602.73
2019-04-03T19:02:41.634Z,98612.55
2019-04-03T19:05:14.060Z,98601.77
2019-04-03T19:07:45.998Z,98608.43
2019-04-03T19:10:14.048Z,98607.69
2019-04-03T19:12:43.706Z,98599.20
2019-04-03T19:15:13.055Z,98602.72
2019-04-03T19:17:42.025Z,98607.06
2019-04-03T19:20:11.539Z,98603.56
2019-04-03T19:22:40.534Z,98602.09
2019-04-03T19:25:09.795Z,98603.88
2019-04-03T19:27:38.608Z,98607.39
2019-04-03T19:30:10.513Z,98597.84
2019-04-03T19:32:39.408Z,98614.28
2019-04-03T19:35:10.100Z,98614.89
2019-04-03T19:37:38.920Z,98612.09
2019-04-03T19:40:09.662Z,98605.76
2019-04-03T19:42:39.229Z,98616.98
2019-04-03T19:45:12.752Z,98611.78
2019-04-03T19:47:40.338Z,98608.36
2019-04-03T19:50:09.718Z,98609.13
2019-04-03T19:52:41.559Z,98611.02
2019-04-03T19:55:09.184Z,98613.31
2019-04-03T19:57:39.039Z,98612.78
2019-04-03T20:00:09.592Z,98605.05
2019-04-03T20:02:40.468Z,98600.02
2019-04-03T20:05:09.503Z,98605.75
2019-04-03T20:07:38.263Z,98600.30
2019-04-03T20:10:10.195Z,98597.47
2019-04-03T20:12:38.949Z,98602.30
2019-04-03T20:15:08.694Z,98603.72
2019-04-03T20:17:37.526Z,98599.22
2019-04-03T20:20:07.719Z,98603.61
2019-04-03T20:22:37.846Z,98595.70
2019-04-03T20:25:07.532Z,98601.64
2019-04-03T20:27:36.470Z,98608.34
2019-04-03T20:30:07.318Z,98606.70
2019-04-03T20:32:36.079Z,98600.63
2019-04-03T20:35:06.728Z,98607.28
2019-04-03T20:37:35.475Z,98608.56
2019-04-03T20:40:05.697Z,98609.41
2019-04-03T20:42:34.529Z,98601.48
2019-04-03T20:45:03.362Z,98602.14
2019-04-03T20:47:32.175Z,98601.98
2019-04-03T20:50:01.014Z,98601.94
2019-04-03T20:52:29.759Z,98600.77
2019-04-03T20:54:58.649Z,98605.16
2019-04-03T20:57:27.394Z,98604.16
2019-04-03T21:00:02.864Z,98606.97
2019-04-03T21:02:26.787Z,98605.11
2019-04-03T21:04:55.576Z,98603.27
2019-04-03T21:07:24.611Z,98598.23
2019-04-03T21:09:53.479Z,98600.81
2019-04-03T21:12:22.219Z,98602.62
2019-04-03T21:14:50.964Z,98599.04
2019-04-03T21:17:19.753Z,98591.28
2019-04-03T21:19:51.903Z,98600.41
2019-04-03T21:22:19.011Z,98592.88
2019-04-03T21:24:47.827Z,98597.56
2019-04-03T21:27:16.548Z,98598.02
2019-04-03T21:29:45.327Z,98592.88
2019-04-03T21:32:14.124Z,98592.06
2019-04-03T21:34:43.042Z,98596.44
2019-04-03T21:37:14.024Z,98595.76
2019-04-03T21:39:43.818Z,98589.75
2019-04-03T21:42:12.789Z,98586.45
2019-04-03T21:44:41.552Z,98587.97
2019-04-03T21:47:11.730Z,98595.70
2019-04-03T21:49:40.859Z,98592.77
2019-04-03T21:52:09.593Z,98585.48
2019-04-03T21:54:38.395Z,98595.80
2019-04-03T21:57:07.158Z,98594.23
2019-04-03T21:59:35.879Z,98592.90
2019-04-03T22:02:04.873Z,98597.74
2019-04-03T22:04:33.605Z,98585.25
2019-04-03T22:07:02.359Z,98582.91
2019-04-03T22:09:31.255Z,98575.63
2019-04-03T22:12:00.074Z,98574.80
2019-04-03T22:14:28.818Z,98572.52
2019-04-03T22:16:57.634Z,98571.86
2019-04-03T22:19:27.633Z,98563.37
2019-04-03T22:21:56.880Z,98566.09
2019-04-03T22:24:25.678Z,98561.20
2019-04-03T22:26:54.417Z,98566.67
2019-04-03T22:29:23.154Z,98563.65
2019-04-03T22:31:53.970Z,98561.75
2019-04-03T22:34:22.443Z,98565.00
2019-04-03T22:36:51.179Z,98557.78
2019-04-03T22:39:19.968Z,98556.17
2019-04-03T22:41:48.713Z,98552.37
2019-04-03T22:44:17.747Z,98563.06
2019-04-03T22:46:46.610Z,98557.57
2019-04-03T22:49:15.358Z,98557.77
2019-04-03T22:51:44.098Z,98556.07
2019-04-03T22:54:13.318Z,98565.92
2019-04-03T22:56:42.130Z,98562.15
2019-04-03T22:59:10.864Z,98562.64
2019-04-03T23:01:39.653Z,98564.45
2019-04-03T23:04:08.388Z,98566.06
2019-04-03T23:06:37.128Z,98564.75
2019-04-03T23:09:08.243Z,98550.30
2019-04-03T23:11:36.994Z,98554.53
2019-04-03T23:14:07.423Z,98554.05
2019-04-03T23:16:36.315Z,98548.98
2019-04-03T23:19:05.100Z,98553.61
2019-04-03T23:21:33.886Z,98562.22
2019-04-03T23:24:02.679Z,98558.61
2019-04-03T23:26:32.173Z,98558.80
2019-04-03T23:29:03.088Z,98551.63
2019-04-03T23:31:32.148Z,98549.34
2019-04-03T23:34:00.895Z,98544.52
2019-04-03T23:36:29.633Z,98538.08
2019-04-03T23:38:58.433Z,98545.80
2019-04-03T23:41:27.169Z,98540.44
2019-04-03T23:43:55.908Z,98535.07
2019-04-03T23:46:24.707Z,98541.40
2019-04-03T23:48:53.460Z,98540.63
2019-04-03T23:51:23.442Z,98536.30
2019-04-03T23:53:52.689Z,98537.47
2019-04-03T23:56:21.433Z,98528.94
2019-04-03T23:58:50.163Z,98535.66
